LTAL

Kastamonu

Kastamonu, Turkey
TAF LTAL 261040Z 2612/2621 05008KT 9999 SCT030
Issued Valid From Valid To
Apr-26 @ 10:40 UTC
(3 hours ago)
Apr-26 @ 12:00 UTC
(2 hours ago)
Apr-26 @ 21:00 UTC
(in 7 hours)
Apr-26 @ 12:00 to Apr-26 @ 21:00
TAF LTAL 261040Z 2612/2621 05008KT 9999 SCT030
Wind Visibility Clouds
50° at 8 knots 10,000+ meters
  • Scattered at 3,000' AGL
TAF LTAL 261040Z 2612/2621 05008KT 9999 SCT030
Issued Apr-26 @ 10:40 UTC
(3 hours ago)
Valid From Apr-26 @ 12:00 UTC
(2 hours ago)
Valid To Apr-26 @ 21:00 UTC
(in 7 hours)
Apr-26 @ 12:00 - Apr-26 @ 21:00
Wind Visibility
50° at 8 knots 10,000+ meters
Clouds
  • Scattered at 3,000' AGL